Time;durP1;ratioP1;P1;durP2;ratioP2;P2;SDS_P1;SDS_P2;PMS_P1;PMS_P2;Temp;Humidity;BMP_temperature;BMP_pressure;BME280_temperature;BME280_humidity;BME280_pressure;Samples;Min_cycle;Max_cycle;Signal;HPM_P1;HPM_P2
2023/01/03 00:01:30;;;;;;;8.88;3.72;;;8.40;99.90;;;;;;4963081;28;19930;-65
2023/01/03 00:03:59;;;;;;;11.80;4.22;;;8.40;99.90;;;;;;4930790;28;20050;-65
2023/01/03 00:06:31;;;;;;;5.70;4.25;;;8.30;99.90;;;;;;4946770;28;20050;-65
2023/01/03 00:08:58;;;;;;;10.70;4.13;;;8.40;99.90;;;;;;4946416;29;20051;-64
2023/01/03 00:14:14;;;;;;;11.35;4.55;;;8.30;99.90;;;;;;4945458;28;20059;-65
2023/01/03 00:16:41;;;;;;;8.55;4.05;;;8.30;99.90;;;;;;4947130;28;20089;-65
2023/01/03 00:19:08;;;;;;;9.38;4.60;;;8.30;99.90;;;;;;4926373;29;20043;-65
2023/01/03 00:21:34;;;;;;;8.15;4.68;;;8.30;99.90;;;;;;4946496;28;20049;-64
2023/01/03 00:24:00;;;;;;;11.32;5.07;;;8.20;99.90;;;;;;4946533;28;20462;-64
2023/01/03 00:26:26;;;;;;;8.57;4.25;;;8.20;99.90;;;;;;4931214;29;20055;-65
2023/01/03 00:28:52;;;;;;;10.75;5.13;;;8.30;99.90;;;;;;4944078;29;20052;-64
2023/01/03 00:31:18;;;;;;;9.23;4.88;;;8.20;99.90;;;;;;4947296;28;20039;-65
2023/01/03 00:33:44;;;;;;;12.60;6.10;;;8.20;99.90;;;;;;4941867;28;20231;-65
2023/01/03 00:36:11;;;;;;;11.82;6.07;;;8.20;99.90;;;;;;4946487;29;20055;-64
2023/01/03 00:38:37;;;;;;;8.23;5.70;;;8.20;99.90;;;;;;4963588;28;20057;-64
2023/01/03 00:41:07;;;;;;;9.07;6.07;;;8.20;99.90;;;;;;4946033;28;20047;-64
2023/01/03 00:43:33;;;;;;;10.55;6.07;;;8.20;99.90;;;;;;4946891;28;20055;-64
2023/01/03 00:45:59;;;;;;;11.15;6.30;;;8.20;99.90;;;;;;4930490;29;20051;-65
2023/01/03 00:48:25;;;;;;;10.52;6.22;;;8.10;99.90;;;;;;4930680;28;20047;-64
2023/01/03 00:50:50;;;;;;;9.90;6.03;;;8.20;99.90;;;;;;4928744;29;20580;-64
2023/01/03 00:53:17;;;;;;;11.07;6.47;;;8.20;99.90;;;;;;4929333;29;20140;-65
2023/01/03 00:55:43;;;;;;;10.90;6.13;;;8.10;99.90;;;;;;4978433;28;20051;-64
2023/01/03 00:58:09;;;;;;;12.77;5.80;;;8.20;99.90;;;;;;4946501;29;20507;-64
2023/01/03 01:00:35;;;;;;;11.35;6.35;;;8.10;99.90;;;;;;4946759;28;20498;-64
2023/01/03 01:03:01;;;;;;;10.85;5.95;;;8.10;99.90;;;;;;4916431;29;20150;-64
2023/01/03 01:05:28;;;;;;;12.95;6.30;;;8.10;99.90;;;;;;4948592;28;20043;-64
2023/01/03 01:07:54;;;;;;;13.98;6.85;;;8.00;99.90;;;;;;4946957;28;20054;-65
2023/01/03 01:10:19;;;;;;;11.43;6.28;;;8.00;99.90;;;;;;4964434;28;20047;-65
2023/01/03 01:12:46;;;;;;;10.35;5.65;;;8.00;99.90;;;;;;4929807;29;20043;-64
2023/01/03 01:15:12;;;;;;;9.30;6.13;;;8.00;99.90;;;;;;4913741;29;20043;-65
2023/01/03 01:17:38;;;;;;;13.30;6.50;;;8.00;99.90;;;;;;4935538;29;20452;-64
2023/01/03 01:20:04;;;;;;;12.38;6.15;;;8.00;99.90;;;;;;4947639;28;20146;-64
2023/01/03 01:22:30;;;;;;;16.42;5.85;;;7.90;99.90;;;;;;4926706;29;20059;-64
2023/01/03 01:24:56;;;;;;;9.23;5.32;;;7.90;99.90;;;;;;4911777;29;20457;-65
2023/01/03 01:27:22;;;;;;;10.13;5.43;;;7.90;99.90;;;;;;4933358;29;20153;-64
2023/01/03 01:29:48;;;;;;;11.27;5.88;;;7.80;99.90;;;;;;4950663;29;20047;-64
2023/01/03 01:32:14;;;;;;;12.52;5.53;;;7.80;99.90;;;;;;4951057;28;20073;-65
2023/01/03 01:34:40;;;;;;;14.77;6.10;;;7.80;99.90;;;;;;4964225;28;20051;-64
2023/01/03 01:37:05;;;;;;;11.05;4.82;;;7.80;99.90;;;;;;4950594;28;20058;-64
2023/01/03 01:39:32;;;;;;;13.98;5.15;;;7.60;99.90;;;;;;4934540;28;20051;-64
2023/01/03 01:44:50;;;;;;;8.63;4.65;;;7.70;99.90;;;;;;4937797;29;20058;-65
2023/01/03 01:47:20;;;;;;;10.38;4.00;;;7.70;99.90;;;;;;4945479;28;20055;-64
2023/01/03 01:49:47;;;;;;;6.55;3.58;;;7.70;99.90;;;;;;4946422;29;20043;-64
2023/01/03 01:52:13;;;;;;;7.45;3.75;;;7.70;99.90;;;;;;4948705;28;20051;-64
2023/01/03 01:54:40;;;;;;;9.52;4.13;;;7.70;99.90;;;;;;4933852;29;20047;-64
2023/01/03 01:57:08;;;;;;;8.07;3.55;;;7.70;99.90;;;;;;4949937;28;20541;-65
2023/01/03 01:59:34;;;;;;;;;;;7.80;99.90;;;;;;4932393;29;20058;-64
2023/01/03 02:01:59;;;;;;;11.80;3.60;;;7.70;99.90;;;;;;4917188;29;19926;-65
2023/01/03 02:04:28;;;;;;;9.73;3.22;;;7.80;99.90;;;;;;4950773;28;20054;-64
2023/01/03 02:06:53;;;;;;;9.85;3.58;;;7.80;99.90;;;;;;4933722;29;20082;-64
2023/01/03 02:09:19;;;;;;;7.53;3.20;;;7.70;99.90;;;;;;4918191;29;20563;-64
2023/01/03 02:15:07;;;;;;;8.67;3.80;;;7.70;99.90;;;;;;4935673;29;20051;-65
2023/01/03 02:17:39;;;;;;;9.70;3.90;;;7.60;99.90;;;;;;4943818;28;20145;-66
2023/01/03 02:20:18;;;;;;;13.02;3.15;;;7.60;99.90;;;;;;4950707;28;20101;-65
2023/01/03 02:23:05;;;;;;;8.77;3.33;;;7.60;99.90;;;;;;4931399;29;20567;-66
2023/01/03 02:25:47;;;;;;;7.38;3.20;;;7.60;99.90;;;;;;4949870;28;20047;-66
2023/01/03 02:28:34;;;;;;;8.63;3.00;;;7.60;99.90;;;;;;4946595;28;20039;-65
2023/01/03 02:31:47;;;;;;;6.97;2.92;;;7.60;99.90;;;;;;4949557;29;20706;-65
2023/01/03 02:34:23;;;;;;;12.32;3.33;;;7.60;99.90;;;;;;4940066;28;20051;-65
2023/01/03 02:37:06;;;;;;;6.57;3.05;;;7.50;99.90;;;;;;4891836;29;20048;-64
2023/01/03 02:39:47;;;;;;;7.65;2.60;;;7.50;99.90;;;;;;4951384;28;20043;-65
2023/01/03 02:45:27;;;;;;;6.95;2.50;;;7.30;99.90;;;;;;4930989;29;20055;-64
2023/01/03 02:48:00;;;;;;;8.18;2.28;;;7.20;99.90;;;;;;4933853;29;20110;-64
2023/01/03 02:50:26;;;;;;;7.68;3.30;;;7.20;99.90;;;;;;4933529;29;20058;-65
2023/01/03 02:52:53;;;;;;;6.05;2.67;;;7.30;99.90;;;;;;4929363;29;20043;-64
2023/01/03 02:55:21;;;;;;;10.38;2.80;;;7.20;99.90;;;;;;4931758;29;20047;-64
2023/01/03 02:58:13;;;;;;;6.72;2.80;;;7.10;99.90;;;;;;4931508;29;20402;-64
2023/01/03 03:00:40;;;;;;;10.95;2.67;;;7.10;99.90;;;;;;4975812;28;20102;-65
2023/01/03 03:03:09;;;;;;;7.07;2.73;;;7.00;99.90;;;;;;4932247;29;20531;-65
2023/01/03 03:05:44;;;;;;;7.15;2.95;;;7.00;99.90;;;;;;4932800;29;20113;-66
2023/01/03 03:08:10;;;;;;;10.88;3.25;;;7.10;99.90;;;;;;4929197;29;20081;-65
2023/01/03 03:13:40;;;;;;;11.32;2.80;;;7.10;99.90;;;;;;4929539;29;20130;-65
2023/01/03 03:19:12;;;;;;;9.45;3.70;;;7.00;99.90;;;;;;4947269;29;20098;-64
2023/01/03 03:24:58;;;;;;;11.43;3.30;;;7.00;99.90;;;;;;4934336;29;20048;-66
2023/01/03 03:30:04;;;;;;;12.77;3.00;;;6.80;99.90;;;;;;4934485;29;20054;-65
2023/01/03 03:32:30;;;;;;;10.88;3.20;;;6.80;99.90;;;;;;4948134;29;20070;-64
2023/01/03 03:34:56;;;;;;;10.93;3.08;;;6.80;99.90;;;;;;4932896;28;20381;-65
2023/01/03 03:37:23;;;;;;;11.02;3.92;;;6.80;99.90;;;;;;4947752;28;20709;-65
2023/01/03 03:45:42;;;;;;;15.73;3.67;;;6.70;99.90;;;;;;4936554;29;20051;-64
2023/01/03 03:51:29;;;;;;;9.48;3.83;;;6.80;99.90;;;;;;4927976;29;20058;-65
2023/01/03 03:53:54;;;;;;;11.43;3.60;;;6.70;99.90;;;;;;4945785;28;20046;-65
2023/01/03 03:56:23;;;;;;;7.32;2.95;;;6.70;99.90;;;;;;4946830;28;20078;-65
2023/01/03 03:58:52;;;;;;;8.23;3.25;;;6.70;99.90;;;;;;4941100;28;20094;-66
2023/01/03 04:01:19;;;;;;;8.20;3.08;;;6.70;99.90;;;;;;4947134;29;20063;-66
2023/01/03 04:03:44;;;;;;;7.55;2.95;;;6.80;99.90;;;;;;4947096;29;20126;-65
2023/01/03 04:06:14;;;;;;;9.35;3.13;;;6.80;99.90;;;;;;4947449;29;20126;-66
2023/01/03 04:08:40;;;;;;;8.75;2.88;;;6.90;99.90;;;;;;4940879;29;20058;-64
2023/01/03 04:11:06;;;;;;;6.53;3.05;;;6.90;99.90;;;;;;4930875;29;20043;-65
2023/01/03 04:13:33;;;;;;;12.18;3.65;;;6.80;99.90;;;;;;4925263;29;20195;-66
2023/01/03 04:15:58;;;;;;;7.35;2.85;;;6.90;99.90;;;;;;4932058;29;20050;-65
2023/01/03 04:18:24;;;;;;;6.13;2.65;;;6.90;99.90;;;;;;4946865;29;20044;-65
2023/01/03 04:20:50;;;;;;;7.43;2.75;;;6.80;99.90;;;;;;4932687;28;20055;-65
2023/01/03 04:23:16;;;;;;;8.07;2.92;;;6.80;99.90;;;;;;4931430;29;20043;-65
2023/01/03 04:25:43;;;;;;;6.55;3.03;;;6.80;99.90;;;;;;4931328;29;20386;-66
2023/01/03 04:28:09;;;;;;;6.15;2.80;;;6.70;99.90;;;;;;4946946;29;20187;-65
2023/01/03 04:30:34;;;;;;;7.38;2.92;;;6.60;99.90;;;;;;4963103;28;20452;-64
2023/01/03 04:33:04;;;;;;;9.80;3.97;;;6.70;99.90;;;;;;4930558;29;20560;-65
2023/01/03 04:35:31;;;;;;;4.97;3.33;;;6.60;99.90;;;;;;4932201;28;20046;-64
2023/01/03 04:37:57;;;;;;;8.88;3.22;;;6.70;99.90;;;;;;4930584;29;20153;-64
2023/01/03 04:40:23;;;;;;;8.32;4.10;;;6.80;99.90;;;;;;4927785;29;20509;-65
2023/01/03 04:45:33;;;;;;;10.48;3.47;;;6.70;99.90;;;;;;4938910;28;20054;-64
2023/01/03 04:47:59;;;;;;;8.02;3.63;;;6.80;99.90;;;;;;4930435;29;20047;-65
2023/01/03 04:50:27;;;;;;;7.20;4.25;;;6.80;99.90;;;;;;4946761;29;20054;-65
2023/01/03 04:52:53;;;;;;;5.75;3.55;;;6.80;99.90;;;;;;4946163;28;20054;-65
2023/01/03 04:55:19;;;;;;;10.13;4.88;;;6.70;99.90;;;;;;4946596;29;20582;-65
2023/01/03 04:57:45;;;;;;;8.20;4.05;;;6.70;99.90;;;;;;4930287;29;20077;-64
2023/01/03 05:00:11;;;;;;;7.88;3.80;;;6.70;99.90;;;;;;4946705;28;20473;-64
2023/01/03 05:02:38;;;;;;;9.32;4.07;;;6.70;99.90;;;;;;4913854;29;20402;-65
2023/01/03 05:05:04;;;;;;;10.90;4.07;;;6.60;99.90;;;;;;4931405;29;20047;-65
2023/01/03 05:07:31;;;;;;;10.73;3.97;;;6.60;99.90;;;;;;4930490;29;20048;-65
2023/01/03 05:09:57;;;;;;;12.48;4.47;;;6.60;99.90;;;;;;4931848;29;20078;-65
2023/01/03 05:12:23;;;;;;;7.75;4.30;;;6.60;99.90;;;;;;4915754;29;20079;-64
2023/01/03 05:14:49;;;;;;;12.43;4.28;;;6.50;99.90;;;;;;4930990;29;20110;-65
2023/01/03 05:17:14;;;;;;;12.82;4.28;;;6.70;99.90;;;;;;4931690;29;20807;-65
2023/01/03 05:27:55;;;;;;;9.13;4.50;;;6.80;99.90;;;;;;4917679;29;20099;-64
2023/01/03 05:30:22;;;;;;;12.57;4.72;;;6.70;99.90;;;;;;4930211;29;20036;-64
2023/01/03 05:32:47;;;;;;;8.23;4.78;;;6.80;99.90;;;;;;4931746;29;20365;-66
2023/01/03 05:35:13;;;;;;;10.40;5.00;;;6.90;99.90;;;;;;4931357;29;20051;-64
2023/01/03 05:37:39;;;;;;;10.95;5.25;;;6.80;99.90;;;;;;4930651;29;20413;-65
2023/01/03 05:40:05;;;;;;;10.48;6.40;;;6.90;99.90;;;;;;4931223;29;20106;-64
2023/01/03 05:42:31;;;;;;;12.40;5.25;;;6.90;99.90;;;;;;4929870;29;20075;-64
2023/01/03 05:44:57;;;;;;;12.65;5.47;;;6.90;99.90;;;;;;4930611;29;20114;-64
2023/01/03 05:47:24;;;;;;;10.40;5.75;;;6.80;99.90;;;;;;4914528;29;20048;-64
2023/01/03 05:49:50;;;;;;;9.10;5.70;;;6.80;99.90;;;;;;4931834;29;20058;-66
2023/01/03 05:52:16;;;;;;;16.15;7.65;;;6.90;99.90;;;;;;4897549;29;20572;-64
2023/01/03 05:54:41;;;;;;;12.88;6.18;;;6.90;99.90;;;;;;4930736;29;20083;-64
2023/01/03 05:57:07;;;;;;;16.45;6.60;;;7.00;99.90;;;;;;4929980;29;20058;-64
2023/01/03 05:59:33;;;;;;;15.52;6.43;;;7.00;99.90;;;;;;4931739;29;20115;-69
2023/01/03 06:01:59;;;;;;;15.68;7.15;;;7.00;99.90;;;;;;4939843;29;20056;-65
2023/01/03 06:04:24;;;;;;;14.23;7.30;;;7.10;99.90;;;;;;4965582;28;20061;-64
2023/01/03 06:06:50;;;;;;;16.85;8.27;;;7.10;99.90;;;;;;4965422;28;20078;-64
2023/01/03 06:09:16;;;;;;;17.95;7.97;;;7.10;99.90;;;;;;4915042;29;20047;-65
2023/01/03 06:11:42;;;;;;;13.88;8.15;;;7.10;99.90;;;;;;4917313;29;20049;-64
2023/01/03 06:14:08;;;;;;;15.60;7.97;;;7.00;99.90;;;;;;4964745;28;20043;-64
2023/01/03 06:19:17;;;;;;;11.60;7.93;;;6.90;99.90;;;;;;4964354;28;20043;-64
2023/01/03 06:21:43;;;;;;;19.02;9.90;;;6.90;99.90;;;;;;4950155;29;20535;-64
2023/01/03 06:24:09;;;;;;;15.00;8.43;;;7.00;99.90;;;;;;4948682;28;20047;-64
2023/01/03 06:26:35;;;;;;;17.92;9.60;;;7.00;99.90;;;;;;4932944;29;20047;-65
2023/01/03 06:29:11;;;;;;;14.90;8.93;;;6.90;99.90;;;;;;4929622;28;20053;-64
2023/01/03 06:31:37;;;;;;;15.10;8.77;;;6.80;99.90;;;;;;4918899;29;20047;-65
2023/01/03 06:34:03;;;;;;;15.40;9.38;;;6.80;99.90;;;;;;4948379;29;20047;-64
2023/01/03 06:36:31;;;;;;;15.05;8.52;;;6.80;99.90;;;;;;4933195;28;20053;-64
2023/01/03 06:38:57;;;;;;;15.80;8.37;;;6.80;99.90;;;;;;4948043;29;20397;-64
2023/01/03 06:41:23;;;;;;;14.18;9.20;;;6.80;99.90;;;;;;4928331;28;20054;-64
2023/01/03 06:43:48;;;;;;;13.98;8.45;;;6.80;99.90;;;;;;4935390;29;20368;-65
2023/01/03 06:54:30;;;;;;;16.02;8.18;;;6.80;99.90;;;;;;4950694;28;20039;-66
2023/01/03 06:56:56;;;;;;;11.93;7.03;;;6.80;99.90;;;;;;4965865;28;20425;-65
2023/01/03 06:59:22;;;;;;;10.70;8.07;;;6.80;99.90;;;;;;4951706;28;20477;-65
2023/01/03 07:01:49;;;;;;;11.55;8.05;;;6.90;99.90;;;;;;4949097;28;20069;-66
2023/01/03 07:04:16;;;;;;;13.38;9.15;;;6.80;99.90;;;;;;4947785;28;20050;-66
2023/01/03 07:06:41;;;;;;;13.35;8.60;;;6.80;99.90;;;;;;4937143;29;20047;-70
2023/01/03 07:09:08;;;;;;;13.52;8.45;;;6.80;99.90;;;;;;4949998;28;20492;-70
2023/01/03 07:11:34;;;;;;;14.52;9.00;;;6.80;99.90;;;;;;4949932;28;20047;-71
2023/01/03 07:14:02;;;;;;;12.93;8.75;;;6.80;99.90;;;;;;4919378;28;20051;-71
2023/01/03 07:16:38;;;;;;;17.58;9.20;;;6.80;99.90;;;;;;4951602;28;20055;-73
2023/01/03 07:19:05;;;;;;;16.75;10.10;;;6.80;99.90;;;;;;4953145;28;20047;-73
2023/01/03 07:21:32;;;;;;;15.85;10.02;;;6.80;99.90;;;;;;4967865;28;20047;-73
2023/01/03 07:24:00;;;;;;;14.07;10.48;;;6.90;99.90;;;;;;4984779;28;20114;-73
2023/01/03 07:26:26;;;;;;;;;;;6.80;99.90;;;;;;4969105;28;20485;-74
2023/01/03 07:28:51;;;;;;;18.23;10.90;;;6.80;99.90;;;;;;4985340;28;19992;-72
2023/01/03 07:31:17;;;;;;;15.02;10.65;;;6.90;99.90;;;;;;4953121;28;20520;-73
2023/01/03 07:33:44;;;;;;;16.73;11.30;;;6.90;99.90;;;;;;4933540;29;20058;-72
2023/01/03 07:36:11;;;;;;;14.00;10.43;;;6.90;99.90;;;;;;4967258;28;20053;-72
2023/01/03 07:38:37;;;;;;;16.67;11.05;;;6.90;99.90;;;;;;4966507;28;20134;-72
2023/01/03 07:41:04;;;;;;;16.10;9.82;;;7.00;99.90;;;;;;4951717;28;20051;-71
2023/01/03 07:43:35;;;;;;;17.13;11.00;;;7.00;99.90;;;;;;4919814;29;20638;-71
2023/01/03 07:46:13;;;;;;;15.43;11.52;;;6.90;99.90;;;;;;4949603;28;20082;-71
2023/01/03 07:48:39;;;;;;;17.42;10.85;;;6.90;99.90;;;;;;4951738;29;20043;-71
2023/01/03 07:51:05;;;;;;;15.07;10.20;;;6.90;99.90;;;;;;4966709;28;20122;-71
2023/01/03 07:53:32;;;;;;;18.58;10.98;;;6.90;99.90;;;;;;4919417;29;20208;-71
2023/01/03 07:56:12;;;;;;;16.40;10.95;;;6.90;99.90;;;;;;4982860;28;20085;-70
2023/01/03 07:58:38;;;;;;;14.65;9.63;;;6.80;99.90;;;;;;4966276;28;20053;-70
2023/01/03 08:01:04;;;;;;;16.92;10.77;;;6.80;99.90;;;;;;4950571;29;20085;-69
2023/01/03 08:03:30;;;;;;;13.68;10.10;;;6.80;99.90;;;;;;4934938;29;20389;-70
2023/01/03 08:05:59;;;;;;;14.15;9.52;;;6.90;99.90;;;;;;4933753;29;20047;-71
2023/01/03 08:08:28;;;;;;;13.73;9.07;;;6.80;99.90;;;;;;4951270;28;20039;-71
2023/01/03 08:13:39;;;;;;;14.35;8.68;;;6.90;99.90;;;;;;4950492;29;20078;-70
2023/01/03 08:16:08;;;;;;;13.35;7.85;;;6.90;99.90;;;;;;4935124;29;20054;-70
2023/01/03 08:18:34;;;;;;;14.57;8.73;;;6.90;99.90;;;;;;4934265;29;20788;-69
2023/01/03 08:21:01;;;;;;;12.68;8.27;;;6.80;99.90;;;;;;4934350;29;20062;-70
2023/01/03 08:23:32;;;;;;;13.73;9.13;;;6.80;99.90;;;;;;4965648;28;20086;-70
2023/01/03 08:26:09;;;;;;;13.73;8.00;;;6.80;99.90;;;;;;4950947;28;20054;-72
2023/01/03 08:28:35;;;;;;;15.23;9.00;;;6.90;99.90;;;;;;4918725;29;20052;-70
2023/01/03 08:31:21;;;;;;;12.82;8.85;;;6.90;99.90;;;;;;4933964;29;20043;-72
2023/01/03 08:33:54;;;;;;;13.32;8.95;;;6.90;99.90;;;;;;4936146;28;20105;-70
2023/01/03 08:36:19;;;;;;;14.95;9.30;;;6.80;99.90;;;;;;4949267;28;20062;-71
2023/01/03 08:38:48;;;;;;;13.15;9.10;;;6.80;99.90;;;;;;4950110;28;20051;-71
2023/01/03 08:41:14;;;;;;;13.52;8.25;;;6.70;99.90;;;;;;4934885;29;20047;-71
2023/01/03 08:43:40;;;;;;;13.88;8.73;;;6.80;99.90;;;;;;4934339;29;20046;-72
2023/01/03 08:46:06;;;;;;;13.32;8.90;;;6.80;99.90;;;;;;4934438;29;20046;-71
2023/01/03 08:48:32;;;;;;;12.73;9.32;;;6.80;99.90;;;;;;4950447;28;20050;-71
2023/01/03 08:50:58;;;;;;;14.15;9.65;;;6.80;99.90;;;;;;4935546;29;20043;-72
2023/01/03 08:53:25;;;;;;;15.52;9.32;;;6.80;99.90;;;;;;4934527;29;20157;-64
2023/01/03 08:55:51;;;;;;;12.70;8.75;;;6.80;99.90;;;;;;4980016;28;20058;-68
2023/01/03 08:58:17;;;;;;;13.93;9.18;;;6.80;99.90;;;;;;4918443;29;20047;-64
2023/01/03 09:00:43;;;;;;;16.15;9.98;;;6.90;99.90;;;;;;4965968;28;20047;-64
2023/01/03 09:03:08;;;;;;;17.58;9.73;;;6.90;99.90;;;;;;4950038;29;20062;-65
2023/01/03 09:05:34;;;;;;;14.07;8.90;;;6.90;99.90;;;;;;4949523;28;20088;-65
2023/01/03 09:08:00;;;;;;;13.65;9.13;;;7.00;99.90;;;;;;4949909;28;20050;-65
2023/01/03 09:10:26;;;;;;;12.10;9.50;;;7.00;99.90;;;;;;4945902;28;20063;-65
2023/01/03 09:12:52;;;;;;;12.90;9.25;;;7.00;99.90;;;;;;4949528;28;20043;-64
2023/01/03 09:15:18;;;;;;;15.05;9.43;;;7.00;99.90;;;;;;4933887;29;20468;-63
2023/01/03 09:17:46;;;;;;;14.95;8.98;;;7.00;99.90;;;;;;4962294;28;20044;-64
2023/01/03 09:20:12;;;;;;;14.70;9.35;;;7.10;99.90;;;;;;4934323;29;20113;-64
2023/01/03 09:22:38;;;;;;;16.15;9.88;;;7.00;99.90;;;;;;4932639;29;20070;-67
2023/01/03 09:25:04;;;;;;;16.75;9.80;;;7.00;99.90;;;;;;4949071;28;20529;-67
2023/01/03 09:27:30;;;;;;;16.95;10.07;;;7.20;99.90;;;;;;4946772;29;20862;-65
2023/01/03 09:29:55;;;;;;;17.65;9.85;;;7.30;99.90;;;;;;4949374;29;20138;-67
2023/01/03 09:32:21;;;;;;;21.13;9.30;;;7.40;99.90;;;;;;4949003;29;20047;-65
2023/01/03 09:34:47;;;;;;;13.00;9.80;;;7.60;99.90;;;;;;4949192;28;20190;-65
2023/01/03 09:37:12;;;;;;;14.75;9.70;;;7.60;99.90;;;;;;4930732;28;20047;-69
2023/01/03 09:39:41;;;;;;;13.73;10.00;;;7.60;99.90;;;;;;4949055;29;20790;-71
2023/01/03 09:44:52;;;;;;;14.52;9.65;;;8.20;99.90;;;;;;4949652;29;20414;-66
2023/01/03 09:47:23;;;;;;;15.30;9.13;;;8.50;99.90;;;;;;4935931;28;20068;-65
2023/01/03 09:49:48;;;;;;;13.77;8.90;;;8.50;99.90;;;;;;4969050;28;20418;-67
2023/01/03 10:04:09;;;;;;;14.40;8.45;;;9.10;99.90;;;;;;4948809;28;20077;-68
2023/01/03 10:07:08;;;;;;;15.68;9.00;;;9.00;99.90;;;;;;4935715;29;20137;-68
2023/01/03 10:10:12;;;;;;;11.85;8.45;;;8.90;99.90;;;;;;4948012;29;20130;-67
2023/01/03 10:13:01;;;;;;;15.23;7.90;;;9.00;99.90;;;;;;4959528;28;20595;-68
2023/01/03 10:15:34;;;;;;;15.55;8.63;;;8.70;99.90;;;;;;4949850;28;20051;-69
2023/01/03 10:18:13;;;;;;;12.25;8.20;;;8.70;99.90;;;;;;4953462;28;20380;-67
2023/01/03 10:20:43;;;;;;;13.23;9.20;;;8.70;99.90;;;;;;4952549;29;20485;-64
2023/01/03 10:23:09;;;;;;;14.00;8.85;;;8.50;99.90;;;;;;4936524;29;20051;-65
2023/01/03 10:25:40;;;;;;;16.83;9.27;;;8.40;99.90;;;;;;4936273;29;20082;-63
2023/01/03 10:28:12;;;;;;;12.50;8.45;;;8.60;99.90;;;;;;4967808;28;20054;-65
2023/01/03 10:30:51;;;;;;;15.02;8.88;;;8.50;99.90;;;;;;4952108;29;20126;-64
2023/01/03 10:33:24;;;;;;;15.02;8.30;;;8.20;99.90;;;;;;4952324;29;20071;-64
2023/01/03 10:35:50;;;;;;;16.35;8.52;;;8.10;99.90;;;;;;4949986;28;20472;-64
2023/01/03 10:38:21;;;;;;;13.00;8.38;;;8.10;99.90;;;;;;4950581;29;20134;-65
2023/01/03 10:40:50;;;;;;;13.13;7.95;;;8.00;99.90;;;;;;4953236;28;20083;-64
2023/01/03 10:43:32;;;;;;;13.30;8.20;;;7.90;99.90;;;;;;4952003;28;20106;-64
2023/01/03 10:46:11;;;;;;;12.07;8.02;;;7.80;99.90;;;;;;4937152;28;20062;-64
2023/01/03 10:48:39;;;;;;;14.88;7.70;;;7.80;99.90;;;;;;4952124;29;20051;-64
2023/01/03 10:51:20;;;;;;;14.32;8.75;;;7.90;99.90;;;;;;4935700;29;20054;-65
2023/01/03 10:53:46;;;;;;;14.57;8.43;;;7.70;99.90;;;;;;4953162;28;20426;-65
2023/01/03 10:56:13;;;;;;;13.07;7.45;;;8.10;99.90;;;;;;4949881;28;20047;-65
2023/01/03 10:58:39;;;;;;;30.10;15.63;;;8.70;99.90;;;;;;4967063;28;20122;-64
2023/01/03 11:01:10;;;;;;;12.00;7.68;;;10.30;99.90;;;;;;4935480;29;20286;-64
2023/01/03 11:03:39;;;;;;;11.65;7.68;;;11.00;99.90;;;;;;4966079;28;20047;-66
2023/01/03 11:06:06;;;;;;;9.63;6.68;;;11.50;99.90;;;;;;4951141;28;20055;-66
2023/01/03 11:08:45;;;;;;;12.20;7.10;;;12.60;99.90;;;;;;4951407;29;20167;-66
2023/01/03 11:11:40;;;;;;;8.57;5.80;;;14.50;93.40;;;;;;4951157;28;20123;-66
2023/01/03 11:14:22;;;;;;;9.95;6.10;;;14.90;90.30;;;;;;4946289;29;20076;-68
2023/01/03 11:17:08;;;;;;;11.68;6.63;;;15.60;81.10;;;;;;4951837;28;20154;-67
2023/01/03 11:19:34;;;;;;;7.82;5.85;;;14.80;81.80;;;;;;4948786;29;20376;-67
2023/01/03 11:22:31;;;;;;;12.77;6.32;;;15.90;76.90;;;;;;4949955;28;20057;-69
2023/01/03 11:25:10;;;;;;;7.75;5.75;;;16.00;76.20;;;;;;4944723;28;20058;-68
2023/01/03 11:27:59;;;;;;;8.95;5.85;;;16.60;70.70;;;;;;4949193;28;20059;-67
2023/01/03 11:30:46;;;;;;;10.85;6.20;;;17.10;66.60;;;;;;4950056;29;20106;-67
2023/01/03 11:33:41;;;;;;;7.68;5.45;;;17.80;64.70;;;;;;4933402;28;20046;-65
2023/01/03 11:36:22;;;;;;;7.28;4.95;;;16.80;64.50;;;;;;4947699;28;20047;-67
2023/01/03 11:39:14;;;;;;;7.70;4.68;;;14.50;68.20;;;;;;4944721;29;20047;-67
2023/01/03 11:41:57;;;;;;;9.00;4.45;;;15.60;68.10;;;;;;4982178;28;20047;-72
2023/01/03 11:44:38;;;;;;;7.78;4.03;;;15.70;66.40;;;;;;4950753;29;20425;-72
2023/01/03 11:47:44;;;;;;;5.85;3.50;;;16.30;63.10;;;;;;4947119;29;20807;-71
2023/01/03 11:50:33;;;;;;;6.55;3.88;;;16.60;61.90;;;;;;4957420;28;20144;-72
2023/01/03 11:53:02;;;;;;;7.72;4.05;;;16.00;63.60;;;;;;4947728;28;20058;-71
2023/01/03 11:55:46;;;;;;;8.45;4.18;;;14.40;67.00;;;;;;4950625;29;20066;-72
2023/01/03 11:58:14;;;;;;;7.15;3.30;;;13.20;74.10;;;;;;4951803;29;20409;-71
2023/01/03 12:00:57;;;;;;;;;;;12.30;89.00;;;;;;4946997;29;20051;-70
2023/01/03 12:03:32;;;;;;;5.88;3.65;;;12.50;84.50;;;;;;4961883;28;19925;-72
2023/01/03 12:06:36;;;;;;;6.28;3.88;;;10.30;94.10;;;;;;4946299;29;20047;-72
2023/01/03 12:09:20;;;;;;;5.07;3.25;;;10.30;98.40;;;;;;4927954;29;20485;-72
2023/01/03 12:12:10;;;;;;;9.85;4.18;;;11.00;97.10;;;;;;4949180;28;20209;-72
2023/01/03 12:14:47;;;;;;;5.03;3.25;;;11.10;96.20;;;;;;4950584;29;20082;-71
2023/01/03 12:17:21;;;;;;;7.03;3.28;;;10.80;97.70;;;;;;4966920;28;20446;-71
2023/01/03 12:20:10;;;;;;;7.10;3.60;;;11.20;96.90;;;;;;4950914;29;20054;-72
2023/01/03 12:22:38;;;;;;;7.00;3.03;;;10.70;98.10;;;;;;4950032;29;20062;-71
2023/01/03 12:25:25;;;;;;;8.45;3.58;;;11.00;97.60;;;;;;4935139;29;20059;-71
2023/01/03 12:27:59;;;;;;;6.60;3.22;;;10.80;98.20;;;;;;4951148;29;20113;-72
2023/01/03 12:30:37;;;;;;;6.53;2.80;;;10.90;97.40;;;;;;4935503;29;20078;-65
2023/01/03 12:33:24;;;;;;;4.75;2.40;;;11.10;97.00;;;;;;4950170;28;20047;-65
2023/01/03 12:36:09;;;;;;;7.70;2.60;;;11.00;97.10;;;;;;4949594;29;20043;-65
2023/01/03 12:38:37;;;;;;;4.28;2.45;;;11.30;96.30;;;;;;4952607;28;20051;-66
2023/01/03 12:41:24;;;;;;;5.55;2.47;;;11.60;95.10;;;;;;4933530;29;20183;-67
2023/01/03 12:44:12;;;;;;;7.55;2.53;;;11.50;95.50;;;;;;4935882;28;20054;-65
2023/01/03 12:46:43;;;;;;;4.95;2.60;;;11.40;94.90;;;;;;4951414;28;20055;-66
2023/01/03 12:49:15;;;;;;;5.78;2.22;;;12.00;94.40;;;;;;4944258;28;20074;-66
2023/01/03 12:51:41;;;;;;;5.80;2.83;;;11.40;95.40;;;;;;4945311;29;20047;-66
2023/01/03 12:54:30;;;;;;;6.25;2.40;;;12.20;93.10;;;;;;4949376;29;20053;-66
2023/01/03 12:57:27;;;;;;;7.28;2.97;;;12.50;93.20;;;;;;4949270;28;20509;-67
2023/01/03 13:00:18;;;;;;;6.20;3.53;;;12.00;94.60;;;;;;4962718;28;20043;-68
2023/01/03 13:03:02;;;;;;;6.93;3.50;;;11.20;97.00;;;;;;4952807;28;20062;-72
2023/01/03 13:05:49;;;;;;;8.93;3.40;;;12.00;96.60;;;;;;4935917;29;20070;-71
2023/01/03 13:08:27;;;;;;;7.78;3.88;;;11.50;95.90;;;;;;4933102;29;20047;-71
2023/01/03 13:10:57;;;;;;;43.30;40.63;;;11.00;97.20;;;;;;4947863;29;20422;-72
2023/01/03 13:13:23;;;;;;;20.17;18.73;;;11.10;97.20;;;;;;4939781;29;20480;-71
2023/01/03 13:15:48;;;;;;;7.38;3.35;;;10.60;98.20;;;;;;4934021;29;20071;-69
2023/01/03 13:18:20;;;;;;;8.13;2.42;;;11.30;98.10;;;;;;4931818;29;20118;-69
2023/01/03 13:20:47;;;;;;;4.72;2.30;;;11.40;97.00;;;;;;4949565;28;20137;-66
2023/01/03 13:23:35;;;;;;;9.70;2.60;;;11.00;98.20;;;;;;4935251;29;20488;-65
2023/01/03 13:26:04;;;;;;;8.30;2.53;;;10.90;98.60;;;;;;4968300;28;20062;-63
2023/01/03 13:28:36;;;;;;;8.43;2.08;;;10.10;99.90;;;;;;4950348;29;20591;-65
2023/01/03 13:31:17;;;;;;;7.30;2.15;;;10.10;99.90;;;;;;4948803;29;20130;-65
2023/01/03 13:33:56;;;;;;;5.85;2.25;;;9.90;99.90;;;;;;4942759;29;20043;-64
2023/01/03 13:36:22;;;;;;;7.63;3.30;;;10.10;99.90;;;;;;4965606;28;20051;-64
2023/01/03 13:38:48;;;;;;;5.97;2.53;;;9.80;99.90;;;;;;4935015;29;20098;-65
2023/01/03 13:41:31;;;;;;;6.78;3.42;;;10.00;99.90;;;;;;4936952;29;20683;-64
2023/01/03 13:44:06;;;;;;;8.32;2.70;;;9.60;99.90;;;;;;4969143;28;20492;-65
2023/01/03 13:46:33;;;;;;;8.93;2.83;;;9.60;99.90;;;;;;4936907;29;20459;-64
2023/01/03 13:49:05;;;;;;;9.23;2.75;;;9.70;99.90;;;;;;4948943;28;20470;-65
2023/01/03 13:51:39;;;;;;;7.10;2.45;;;9.80;99.90;;;;;;4933134;29;20063;-64
2023/01/03 13:54:11;;;;;;;5.55;2.58;;;9.80;99.90;;;;;;4949997;29;20115;-66
2023/01/03 13:56:43;;;;;;;7.97;2.50;;;9.60;99.90;;;;;;4952798;29;20564;-65
2023/01/03 13:59:25;;;;;;;8.52;2.42;;;9.50;99.90;;;;;;4953175;29;20519;-65
2023/01/03 14:02:12;;;;;;;6.40;2.25;;;9.40;99.90;;;;;;4963175;28;20063;-65
2023/01/03 14:04:53;;;;;;;7.15;3.03;;;9.50;99.90;;;;;;4952631;29;20047;-66
2023/01/03 14:07:42;;;;;;;8.43;3.03;;;9.50;99.90;;;;;;4943045;29;20095;-65
2023/01/03 14:10:18;;;;;;;9.18;2.65;;;9.40;99.90;;;;;;4950681;28;20130;-65
2023/01/03 14:13:05;;;;;;;4.43;2.50;;;9.30;99.90;;;;;;4950484;29;20062;-64
2023/01/03 14:15:32;;;;;;;8.13;3.25;;;9.40;99.90;;;;;;4947457;29;20070;-64
2023/01/03 14:18:15;;;;;;;7.35;3.10;;;9.40;99.90;;;;;;4936611;29;20059;-64
2023/01/03 14:20:46;;;;;;;6.13;2.42;;;9.30;99.90;;;;;;4964919;28;20054;-64
2023/01/03 14:23:13;;;;;;;9.15;2.95;;;9.40;99.90;;;;;;4936541;29;20051;-66